createdAt,value
2022-10-10T00:02:13.117Z,63.70
2022-10-10T00:07:15.129Z,63.22
2022-10-10T00:12:17.034Z,61.50
2022-10-10T00:17:18.975Z,67.13
2022-10-10T00:22:21.553Z,60.15
2022-10-10T00:27:23.616Z,62.47
2022-10-10T00:32:26.421Z,60.13
2022-10-10T00:37:28.319Z,41.63
2022-10-10T00:42:30.492Z,27.67
2022-10-10T00:47:32.509Z,24.77
2022-10-10T00:52:34.737Z,25.80
2022-10-10T00:57:36.644Z,25.80
2022-10-10T01:02:38.548Z,24.80
2022-10-10T01:07:41.284Z,30.70
2022-10-10T01:13:01.976Z,29.55
2022-10-10T01:18:10.341Z,30.45
2022-10-10T01:23:37.297Z,40.63
2022-10-10T01:28:50.736Z,29.75
2022-10-10T01:34:08.864Z,27.77
2022-10-10T01:39:23.413Z,28.60
2022-10-10T01:44:25.792Z,25.10
2022-10-10T01:49:32.664Z,26.33
2022-10-10T01:55:08.259Z,27.27
2022-10-10T02:00:19.630Z,28.10
2022-10-10T02:05:32.413Z,28.35
2022-10-10T02:10:40.203Z,27.67
2022-10-10T02:15:46.636Z,28.48
2022-10-10T02:20:50.766Z,32.53
2022-10-10T02:25:55.372Z,29.83
2022-10-10T02:31:01.330Z,28.60
2022-10-10T02:36:04.056Z,27.02
2022-10-10T02:41:09.038Z,26.48
2022-10-10T02:46:13.814Z,28.65
2022-10-10T02:51:16.696Z,29.98
2022-10-10T02:56:18.637Z,32.47
2022-10-10T03:01:20.545Z,35.63
2022-10-10T03:06:22.509Z,37.92
2022-10-10T03:11:24.586Z,30.60
2022-10-10T03:16:26.709Z,39.80
2022-10-10T03:21:28.705Z,29.77
2022-10-10T03:26:30.897Z,39.75
2022-10-10T03:31:32.826Z,47.60
2022-10-10T03:36:34.868Z,40.80
2022-10-10T03:41:36.857Z,40.40
2022-10-10T03:46:39.108Z,43.15
2022-10-10T03:51:41.325Z,39.03
2022-10-10T03:56:43.337Z,43.45
2022-10-10T04:01:45.218Z,44.78
2022-10-10T04:06:47.388Z,50.70
2022-10-10T04:11:49.424Z,51.10
2022-10-10T04:16:51.324Z,43.88
2022-10-10T04:21:53.152Z,41.70
2022-10-10T04:26:55.614Z,44.25
2022-10-10T04:31:57.498Z,43.08
2022-10-10T04:36:59.546Z,35.42
2022-10-10T04:42:01.413Z,33.85
2022-10-10T04:47:03.678Z,36.35
2022-10-10T04:52:05.662Z,40.15
2022-10-10T04:57:07.585Z,40.03
2022-10-10T05:02:10.469Z,48.63
2022-10-10T05:07:12.559Z,40.53
2022-10-10T05:12:14.453Z,39.03
2022-10-10T05:17:16.403Z,32.83
2022-10-10T05:22:18.338Z,38.42
2022-10-10T05:27:20.401Z,39.13
2022-10-10T05:32:23.404Z,36.08
2022-10-10T05:37:25.534Z,30.37
2022-10-10T05:42:27.432Z,32.55
2022-10-10T05:47:29.533Z,32.72
2022-10-10T05:52:31.548Z,32.38
2022-10-10T05:57:33.637Z,35.63
2022-10-10T06:02:35.842Z,28.75
2022-10-10T06:08:02.461Z,35.08
2022-10-10T06:12:59.864Z,30.35
2022-10-10T06:18:01.798Z,31.75
2022-10-10T06:23:05.310Z,25.73
2022-10-10T06:28:07.897Z,33.20
2022-10-10T06:33:11.080Z,27.88
2022-10-10T06:38:15.073Z,38.03
2022-10-10T06:48:19.598Z,28.17
2022-10-10T06:53:21.740Z,31.02
2022-10-10T06:58:24.749Z,34.33
2022-10-10T07:03:28.142Z,34.07
2022-10-10T07:08:30.869Z,25.23
2022-10-10T07:13:33.500Z,32.45
2022-10-10T07:18:36.868Z,35.22
2022-10-10T07:23:39.448Z,41.97
2022-10-10T07:28:41.413Z,41.08
2022-10-10T07:33:49.916Z,43.65
2022-10-10T07:38:54.749Z,43.00
2022-10-10T07:43:57.040Z,40.30
2022-10-10T07:48:59.577Z,40.67
2022-10-10T07:54:01.592Z,35.78
2022-10-10T07:59:03.590Z,32.05
2022-10-10T08:04:05.645Z,30.70
2022-10-10T08:09:07.654Z,29.80
2022-10-10T08:14:09.770Z,28.60
2022-10-10T08:19:11.773Z,27.00
2022-10-10T08:24:13.608Z,25.90
2022-10-10T08:29:15.858Z,24.20
2022-10-10T08:34:17.745Z,21.75
2022-10-10T08:39:19.883Z,18.88
2022-10-10T08:44:43.662Z,16.90
2022-10-10T08:54:58.728Z,14.02
2022-10-10T09:00:07.088Z,12.07
2022-10-10T09:05:17.936Z,11.38
2022-10-10T09:10:32.058Z,11.82
2022-10-10T09:15:41.552Z,10.40
2022-10-10T09:21:07.046Z,10.65
2022-10-10T09:26:13.073Z,9.60
2022-10-10T09:31:23.547Z,9.40
2022-10-10T09:36:32.507Z,10.07
2022-10-10T09:41:54.538Z,12.15
2022-10-10T09:47:00.032Z,8.63
2022-10-10T09:52:27.728Z,9.75
2022-10-10T09:57:42.642Z,11.23
2022-10-10T10:02:49.602Z,7.68
2022-10-10T10:07:53.022Z,7.70
2022-10-10T10:12:55.443Z,6.35
2022-10-10T10:18:22.410Z,7.45
2022-10-10T10:23:32.894Z,4.70
2022-10-10T10:28:44.552Z,4.28
2022-10-10T10:34:12.975Z,5.43
2022-10-10T10:39:20.543Z,3.78
2022-10-10T10:44:31.766Z,4.15
2022-10-10T10:49:47.461Z,5.07
2022-10-10T10:55:10.953Z,5.53
2022-10-10T11:00:25.616Z,4.75
2022-10-10T11:05:50.221Z,4.10
2022-10-10T11:11:10.166Z,4.50
2022-10-10T11:16:47.961Z,3.97
2022-10-10T11:21:57.456Z,4.45
2022-10-10T11:27:04.444Z,4.03
2022-10-10T11:32:15.163Z,4.20
2022-10-10T11:37:24.889Z,4.50
2022-10-10T11:42:36.222Z,4.40
2022-10-10T11:47:45.375Z,4.97
2022-10-10T11:52:56.145Z,4.90
2022-10-10T11:58:26.029Z,4.38
2022-10-10T12:03:28.073Z,4.07
2022-10-10T12:09:10.545Z,3.92
2022-10-10T12:14:17.209Z,3.67
2022-10-10T12:19:24.949Z,3.13
2022-10-10T12:24:30.786Z,3.38
2022-10-10T12:29:47.846Z,2.70
2022-10-10T12:34:53.144Z,3.53
2022-10-10T12:40:06.940Z,3.17
2022-10-10T12:45:29.252Z,3.17
2022-10-10T12:50:35.851Z,2.95
2022-10-10T12:56:03.223Z,3.03
2022-10-10T13:01:25.628Z,3.20
2022-10-10T13:06:37.334Z,2.58
2022-10-10T13:12:00.694Z,2.55
2022-10-10T13:17:03.076Z,2.10
2022-10-10T13:22:05.353Z,3.75
2022-10-10T13:27:16.481Z,2.05
2022-10-10T13:32:24.081Z,2.47
2022-10-10T13:37:26.803Z,2.45
2022-10-10T13:42:31.454Z,2.70
2022-10-10T13:48:02.431Z,2.60
2022-10-10T13:53:54.142Z,2.30
2022-10-10T13:59:01.387Z,2.72
2022-10-10T14:04:12.480Z,2.33
2022-10-10T14:09:42.220Z,2.40
2022-10-10T14:14:47.922Z,9.75
2022-10-10T14:19:50.892Z,3.10
2022-10-10T14:24:52.799Z,3.33
2022-10-10T14:29:56.941Z,3.80
2022-10-10T14:34:59.321Z,5.05
2022-10-10T14:40:04.355Z,2.38
2022-10-10T14:45:06.872Z,2.40
2022-10-10T14:50:17.738Z,3.28
2022-10-10T14:55:19.772Z,3.50
2022-10-10T15:00:24.250Z,3.78
2022-10-10T15:05:26.424Z,9.23
2022-10-10T15:10:33.710Z,6.88
2022-10-10T15:15:36.191Z,6.70
2022-10-10T15:20:38.238Z,6.63
2022-10-10T15:25:43.859Z,6.55
2022-10-10T15:30:46.259Z,5.35
2022-10-10T15:36:10.884Z,4.63
2022-10-10T15:41:15.265Z,4.78
2022-10-10T15:46:17.155Z,4.93
2022-10-10T15:51:19.715Z,5.55
2022-10-10T15:56:21.551Z,4.95
2022-10-10T16:01:24.716Z,5.07
2022-10-10T16:06:26.869Z,5.93
2022-10-10T16:11:28.829Z,9.30
2022-10-10T16:16:31.817Z,7.75
2022-10-10T16:21:33.734Z,9.77
2022-10-10T16:26:37.639Z,11.07
2022-10-10T16:31:40.452Z,12.25
2022-10-10T16:36:42.748Z,12.43
2022-10-10T16:41:49.027Z,18.50
2022-10-10T16:46:51.747Z,26.98
2022-10-10T16:51:53.893Z,18.20
2022-10-10T16:56:55.868Z,25.52
2022-10-10T17:01:58.028Z,69.97
2022-10-10T17:07:00.359Z,18.02
2022-10-10T17:12:02.361Z,22.52
2022-10-10T17:17:13.397Z,14.45
2022-10-10T17:22:16.605Z,16.60
2022-10-10T17:27:18.756Z,21.77
2022-10-10T17:32:21.334Z,18.40
2022-10-10T17:37:23.316Z,15.55
2022-10-10T17:42:25.296Z,13.80
2022-10-10T17:47:27.935Z,13.75
2022-10-10T17:52:29.887Z,12.63
2022-10-10T17:57:32.886Z,11.85
2022-10-10T18:02:35.062Z,12.68
2022-10-10T18:07:37.320Z,13.50
2022-10-10T18:12:39.234Z,12.95
2022-10-10T18:17:41.149Z,13.68
2022-10-10T18:22:43.218Z,14.98
2022-10-10T18:27:45.201Z,15.77
2022-10-10T18:32:47.289Z,16.10
2022-10-10T18:37:49.286Z,15.50
2022-10-10T18:42:51.400Z,15.98
2022-10-10T18:48:00.129Z,17.05
2022-10-10T18:53:02.178Z,18.30
2022-10-10T18:58:07.260Z,17.88
2022-10-10T19:03:09.369Z,18.02
2022-10-10T19:08:11.909Z,17.25
2022-10-10T19:13:19.162Z,17.23
2022-10-10T19:18:22.535Z,17.52
2022-10-10T19:23:29.759Z,19.00
2022-10-10T19:28:32.960Z,20.42
2022-10-10T19:33:35.574Z,17.50
2022-10-10T19:38:39.258Z,18.60
2022-10-10T19:43:42.966Z,17.23
2022-10-10T19:53:46.865Z,17.75
2022-10-10T19:58:48.851Z,22.23
2022-10-10T20:03:51.477Z,19.85
2022-10-10T20:08:53.928Z,20.43
2022-10-10T20:13:56.178Z,18.25
2022-10-10T20:18:59.131Z,17.48
2022-10-10T20:24:13.426Z,18.90
2022-10-10T20:29:15.431Z,18.45
2022-10-10T20:34:17.361Z,20.35
2022-10-10T20:39:20.162Z,19.33
2022-10-10T20:44:22.185Z,17.77
2022-10-10T20:49:24.721Z,16.58
2022-10-10T20:54:26.602Z,16.40
2022-10-10T20:59:29.284Z,17.50
2022-10-10T21:04:31.112Z,16.92
2022-10-10T21:09:33.258Z,16.88
2022-10-10T21:14:35.102Z,16.40
2022-10-10T21:19:37.041Z,16.67
2022-10-10T21:24:39.492Z,16.83
2022-10-10T21:29:41.353Z,17.77
2022-10-10T21:34:43.273Z,17.73
2022-10-10T21:39:45.154Z,16.73
2022-10-10T21:44:47.423Z,15.43
2022-10-10T21:49:49.768Z,17.63
2022-10-10T21:54:52.296Z,16.38
2022-10-10T21:59:54.613Z,18.65
2022-10-10T22:04:59.011Z,22.10
2022-10-10T22:10:01.420Z,18.45
2022-10-10T22:15:03.409Z,17.92
2022-10-10T22:20:07.626Z,17.98
2022-10-10T22:25:13.717Z,17.75
2022-10-10T22:30:15.677Z,16.67
2022-10-10T22:35:17.897Z,16.40
2022-10-10T22:40:22.440Z,16.17
2022-10-10T22:45:24.843Z,15.32
2022-10-10T22:50:27.319Z,15.77
2022-10-10T22:55:29.360Z,15.40
2022-10-10T23:00:31.607Z,15.57
2022-10-10T23:05:33.811Z,14.35
2022-10-10T23:10:35.977Z,15.32
2022-10-10T23:15:37.935Z,14.30
2022-10-10T23:20:39.865Z,15.30
2022-10-10T23:25:47.553Z,14.50
2022-10-10T23:30:49.647Z,14.88
2022-10-10T23:36:03.375Z,14.68
2022-10-10T23:41:06.064Z,13.77
2022-10-10T23:46:08.481Z,13.55
2022-10-10T23:51:10.901Z,13.80
2022-10-10T23:56:12.845Z,13.48
